createdAt,value
2018-12-14T00:00:48.394Z,99.90
2018-12-14T00:03:17.830Z,99.90
2018-12-14T00:05:48.018Z,99.90
2018-12-14T00:08:17.412Z,99.90
2018-12-14T00:10:47.114Z,99.90
2018-12-14T00:13:17.323Z,99.90
2018-12-14T00:15:47.555Z,99.90
2018-12-14T00:18:19.827Z,99.90
2018-12-14T00:20:50.542Z,99.90
2018-12-14T00:23:21.831Z,99.90
2018-12-14T00:25:52.711Z,99.90
2018-12-14T00:28:22.197Z,99.90
2018-12-14T00:30:51.780Z,99.90
2018-12-14T00:33:21.501Z,99.90
2018-12-14T00:35:50.843Z,99.90
2018-12-14T00:38:20.546Z,99.90
2018-12-14T00:40:50.120Z,99.90
2018-12-14T00:43:19.660Z,99.90
2018-12-14T00:45:49.490Z,99.90
2018-12-14T00:48:18.894Z,99.90
2018-12-14T00:50:48.450Z,99.90
2018-12-14T00:53:18.051Z,99.90
2018-12-14T00:55:47.832Z,99.90
2018-12-14T00:58:17.267Z,99.90
2018-12-14T01:00:46.876Z,99.90
2018-12-14T01:03:16.517Z,99.90
2018-12-14T01:05:46.359Z,99.90
2018-12-14T01:08:15.666Z,99.90
2018-12-14T01:10:45.157Z,99.90
2018-12-14T01:13:15.499Z,99.90
2018-12-14T01:15:45.853Z,99.90
2018-12-14T01:18:16.096Z,99.90
2018-12-14T01:20:45.419Z,99.90
2018-12-14T01:23:15.811Z,99.90
2018-12-14T01:25:45.421Z,99.90
2018-12-14T01:28:16.260Z,99.90
2018-12-14T01:30:47.432Z,99.90
2018-12-14T01:33:17.266Z,99.90
2018-12-14T01:35:46.979Z,99.90
2018-12-14T01:38:17.128Z,99.90
2018-12-14T01:40:46.528Z,99.90
2018-12-14T01:43:16.005Z,99.90
2018-12-14T01:45:45.636Z,99.90
2018-12-14T01:48:15.025Z,99.90
2018-12-14T01:50:44.576Z,99.90
2018-12-14T01:53:13.989Z,99.90
2018-12-14T01:55:43.368Z,99.90
2018-12-14T01:58:12.963Z,99.90
2018-12-14T02:00:42.552Z,99.90
2018-12-14T02:03:12.195Z,99.90
2018-12-14T02:05:41.562Z,99.90
2018-12-14T02:08:11.178Z,99.90
2018-12-14T02:10:40.571Z,99.90
2018-12-14T02:13:09.970Z,99.90
2018-12-14T02:15:40.194Z,99.90
2018-12-14T02:18:10.516Z,99.90
2018-12-14T02:20:39.982Z,99.90
2018-12-14T02:23:10.256Z,99.90
2018-12-14T02:25:39.722Z,99.90
2018-12-14T02:28:09.121Z,99.90
2018-12-14T02:30:42.864Z,99.90
2018-12-14T02:33:12.271Z,99.90
2018-12-14T02:35:42.044Z,99.90
2018-12-14T02:38:12.803Z,99.90
2018-12-14T02:40:42.261Z,99.90
2018-12-14T02:43:11.750Z,99.90
2018-12-14T02:45:41.779Z,99.90
2018-12-14T02:48:11.021Z,99.90
2018-12-14T02:50:40.612Z,99.90
2018-12-14T02:53:10.358Z,99.90
2018-12-14T02:55:40.134Z,99.90
2018-12-14T02:58:09.577Z,99.90
2018-12-14T03:00:39.142Z,99.90
2018-12-14T03:03:08.585Z,99.90
2018-12-14T03:05:39.440Z,99.90
2018-12-14T03:08:08.915Z,99.90
2018-12-14T03:10:38.428Z,99.90
2018-12-14T03:13:08.012Z,99.90
2018-12-14T03:15:37.542Z,99.90
2018-12-14T03:18:07.063Z,99.90
2018-12-14T03:20:36.689Z,99.90
2018-12-14T03:23:06.463Z,99.90
2018-12-14T03:25:36.006Z,99.90
2018-12-14T03:28:05.117Z,99.90
2018-12-14T03:30:34.710Z,99.90
2018-12-14T03:33:04.376Z,99.90
2018-12-14T03:35:33.834Z,99.90
2018-12-14T03:38:03.341Z,99.90
2018-12-14T03:40:33.004Z,99.90
2018-12-14T03:43:02.267Z,99.90
2018-12-14T03:45:31.992Z,99.90
2018-12-14T03:48:01.208Z,99.90
2018-12-14T03:50:31.394Z,99.90
2018-12-14T03:53:01.105Z,99.90
2018-12-14T03:55:31.445Z,99.90
2018-12-14T03:58:01.035Z,99.90
2018-12-14T04:00:30.436Z,99.90
2018-12-14T04:03:00.239Z,99.90
2018-12-14T04:05:30.124Z,99.90
2018-12-14T04:08:00.318Z,99.90
2018-12-14T04:13:43.108Z,99.90
2018-12-14T04:16:15.550Z,99.90
2018-12-14T04:18:50.583Z,99.90
2018-12-14T04:24:00.356Z,99.90
2018-12-14T04:26:36.876Z,99.90
2018-12-14T04:29:09.812Z,99.90
2018-12-14T04:31:39.282Z,99.90
2018-12-14T04:34:08.576Z,99.90
2018-12-14T04:36:37.863Z,99.90
2018-12-14T04:39:07.476Z,99.90
2018-12-14T04:41:37.474Z,99.90
2018-12-14T04:44:06.993Z,99.90
2018-12-14T04:46:36.710Z,99.90
2018-12-14T04:49:06.433Z,99.90
2018-12-14T04:51:35.776Z,99.90
2018-12-14T04:54:05.045Z,99.90
2018-12-14T04:56:34.538Z,99.90
2018-12-14T04:59:04.013Z,99.90
2018-12-14T05:01:32.756Z,99.90
2018-12-14T05:04:02.459Z,99.90
2018-12-14T05:06:31.816Z,99.90
2018-12-14T05:09:01.307Z,99.90
2018-12-14T05:11:30.916Z,99.90
2018-12-14T05:14:00.489Z,99.90
2018-12-14T05:16:30.186Z,99.90
2018-12-14T05:18:59.777Z,99.90
2018-12-14T05:21:29.446Z,99.90
2018-12-14T05:23:59.812Z,99.90
2018-12-14T05:26:32.800Z,99.90
2018-12-14T05:29:02.285Z,99.90
2018-12-14T05:31:31.641Z,99.90
2018-12-14T05:34:01.205Z,99.90
2018-12-14T05:36:30.585Z,99.90
2018-12-14T05:38:59.906Z,99.90
2018-12-14T05:41:29.296Z,99.90
2018-12-14T05:43:59.192Z,99.90
2018-12-14T05:46:28.557Z,99.90
2018-12-14T05:48:58.076Z,99.90
2018-12-14T05:51:27.638Z,99.90
2018-12-14T05:53:57.135Z,99.90
2018-12-14T05:56:26.739Z,99.90
2018-12-14T05:58:56.092Z,99.90
2018-12-14T06:01:26.313Z,99.90
2018-12-14T06:03:55.909Z,99.90
2018-12-14T06:06:25.119Z,99.90
2018-12-14T06:08:54.411Z,99.90
2018-12-14T06:11:24.033Z,99.90
2018-12-14T06:13:54.149Z,99.90
2018-12-14T06:16:23.570Z,99.90
2018-12-14T06:18:53.360Z,99.90
2018-12-14T06:21:22.983Z,99.90
2018-12-14T06:23:52.619Z,99.90
2018-12-14T06:26:23.377Z,99.90
2018-12-14T06:28:53.201Z,99.90
2018-12-14T06:31:22.790Z,99.90
2018-12-14T06:33:52.610Z,99.90
2018-12-14T06:36:21.980Z,99.90
2018-12-14T06:38:58.474Z,99.90
2018-12-14T06:41:28.010Z,99.90
2018-12-14T06:43:57.449Z,99.90
2018-12-14T06:46:27.403Z,99.90
2018-12-14T06:48:57.063Z,99.90
2018-12-14T06:51:26.546Z,99.90
2018-12-14T06:53:56.239Z,99.90
2018-12-14T06:56:25.766Z,99.90
2018-12-14T06:58:55.655Z,99.90
2018-12-14T07:01:25.157Z,99.90
2018-12-14T07:03:55.015Z,99.90
2018-12-14T07:06:24.457Z,99.90
2018-12-14T07:08:54.129Z,99.90
2018-12-14T07:11:24.313Z,99.90
2018-12-14T07:13:54.212Z,99.90
2018-12-14T07:16:24.364Z,99.90
2018-12-14T07:18:54.099Z,99.90
2018-12-14T07:21:24.429Z,99.90
2018-12-14T07:23:53.939Z,99.90
2018-12-14T07:26:23.970Z,99.90
2018-12-14T07:28:53.444Z,99.90
2018-12-14T07:31:23.275Z,99.90
2018-12-14T07:33:53.338Z,99.90
2018-12-14T07:36:23.141Z,99.90
2018-12-14T07:38:52.932Z,99.90
2018-12-14T07:41:23.278Z,99.90
2018-12-14T07:43:53.697Z,99.90
2018-12-14T07:46:23.861Z,99.90
2018-12-14T07:48:53.899Z,99.90
2018-12-14T07:51:23.311Z,99.90
2018-12-14T07:53:52.760Z,99.90
2018-12-14T07:56:23.475Z,99.90
2018-12-14T07:58:53.343Z,99.90
2018-12-14T08:01:29.690Z,99.90
2018-12-14T08:04:00.257Z,99.90
2018-12-14T08:06:30.775Z,99.90
2018-12-14T08:09:01.171Z,99.90
2018-12-14T08:11:31.618Z,99.90
2018-12-14T08:14:02.209Z,99.90
2018-12-14T08:16:33.992Z,99.90
2018-12-14T08:19:03.389Z,99.90
2018-12-14T08:21:32.899Z,99.90
2018-12-14T08:24:02.540Z,99.90
2018-12-14T08:26:31.844Z,99.90
2018-12-14T08:29:01.518Z,99.90
2018-12-14T08:31:31.077Z,99.90
2018-12-14T08:34:00.694Z,99.90
2018-12-14T08:36:30.017Z,99.90
2018-12-14T08:38:59.612Z,99.90
2018-12-14T08:41:29.329Z,99.90
2018-12-14T08:43:58.961Z,99.90
2018-12-14T08:46:31.372Z,99.90
2018-12-14T08:49:01.741Z,99.90
2018-12-14T08:51:31.263Z,99.90
2018-12-14T08:54:00.823Z,99.90
2018-12-14T08:56:30.131Z,99.90
2018-12-14T08:58:59.538Z,99.90
2018-12-14T09:01:28.754Z,99.90
2018-12-14T09:03:59.159Z,99.90
2018-12-14T09:06:28.730Z,99.90
2018-12-14T09:08:58.362Z,99.90
2018-12-14T09:11:27.886Z,99.90
2018-12-14T09:13:57.370Z,99.90
2018-12-14T09:16:26.589Z,99.90
2018-12-14T09:18:56.481Z,99.90
2018-12-14T09:21:26.001Z,99.90
2018-12-14T09:23:55.532Z,99.90
2018-12-14T09:26:25.160Z,99.90
2018-12-14T09:28:54.765Z,99.90
2018-12-14T09:31:24.445Z,99.90
2018-12-14T09:33:54.719Z,99.90
2018-12-14T09:36:24.115Z,99.90
2018-12-14T09:38:53.437Z,99.90
2018-12-14T09:41:23.833Z,99.90
2018-12-14T09:43:54.502Z,99.90
2018-12-14T09:46:23.538Z,99.90
2018-12-14T09:48:52.890Z,99.90
2018-12-14T09:51:22.193Z,99.90
2018-12-14T09:53:51.816Z,99.90
2018-12-14T09:56:21.286Z,99.90
2018-12-14T09:58:50.782Z,99.90
2018-12-14T10:01:20.307Z,99.90
2018-12-14T10:03:50.095Z,99.90
2018-12-14T10:06:19.631Z,99.90
2018-12-14T10:08:49.102Z,99.90
2018-12-14T10:11:18.532Z,99.90
2018-12-14T10:13:48.440Z,99.90
2018-12-14T10:16:17.880Z,99.90
2018-12-14T10:18:47.852Z,99.90
2018-12-14T10:21:17.330Z,99.90
2018-12-14T10:23:46.864Z,99.90
2018-12-14T10:26:16.464Z,99.90
2018-12-14T10:28:46.016Z,99.90
2018-12-14T10:31:15.424Z,99.90
2018-12-14T10:33:44.922Z,99.90
2018-12-14T10:36:14.597Z,99.90
2018-12-14T10:38:44.522Z,99.90
2018-12-14T10:41:14.184Z,99.90
2018-12-14T10:43:43.759Z,99.90
2018-12-14T10:46:13.268Z,99.90
2018-12-14T10:48:42.760Z,99.90
2018-12-14T10:51:13.005Z,99.90
2018-12-14T10:53:42.850Z,99.90
2018-12-14T10:56:12.373Z,99.90
2018-12-14T10:58:41.454Z,99.90
2018-12-14T11:04:07.238Z,99.90
2018-12-14T11:06:36.711Z,99.90
2018-12-14T11:09:06.394Z,99.90
2018-12-14T11:11:35.777Z,99.90
2018-12-14T11:14:06.622Z,99.90
2018-12-14T11:16:36.012Z,99.90
2018-12-14T11:19:05.369Z,99.90
2018-12-14T11:21:34.662Z,99.90
2018-12-14T11:24:04.292Z,99.90
2018-12-14T11:26:34.601Z,99.90
2018-12-14T11:29:04.982Z,99.90
2018-12-14T11:31:34.468Z,99.90
2018-12-14T11:34:04.057Z,99.90
2018-12-14T11:36:33.546Z,99.90
2018-12-14T11:39:04.241Z,99.90
2018-12-14T11:41:33.593Z,99.90
2018-12-14T11:44:03.470Z,99.90
2018-12-14T11:46:33.013Z,99.90
2018-12-14T11:49:02.580Z,99.90
2018-12-14T11:51:31.965Z,99.90
2018-12-14T11:54:01.534Z,99.90
2018-12-14T11:56:31.447Z,99.90
2018-12-14T11:59:01.696Z,99.90
2018-12-14T12:01:31.207Z,99.90
2018-12-14T12:04:00.498Z,99.90
2018-12-14T12:06:29.959Z,99.90
2018-12-14T12:08:59.446Z,99.90
2018-12-14T12:11:28.799Z,99.90
2018-12-14T12:13:58.567Z,99.90
2018-12-14T12:16:28.107Z,99.90
2018-12-14T12:18:57.433Z,99.90
2018-12-14T12:21:26.897Z,99.90
2018-12-14T12:23:56.311Z,99.90
2018-12-14T12:26:25.683Z,99.90
2018-12-14T12:28:55.279Z,99.90
2018-12-14T12:31:24.691Z,99.90
2018-12-14T12:33:53.863Z,99.90
2018-12-14T12:36:23.445Z,99.90
2018-12-14T12:38:53.104Z,99.90
2018-12-14T12:41:22.612Z,99.90
2018-12-14T12:43:52.503Z,99.90
2018-12-14T12:46:21.982Z,99.90
2018-12-14T12:48:52.565Z,99.90
2018-12-14T12:51:22.124Z,99.90
2018-12-14T12:53:51.654Z,99.90
2018-12-14T12:56:21.855Z,99.90
2018-12-14T12:58:51.582Z,99.90
2018-12-14T13:01:21.121Z,99.90
2018-12-14T13:03:52.151Z,99.90
2018-12-14T13:06:21.808Z,99.90
2018-12-14T13:08:51.299Z,99.90
2018-12-14T13:11:20.603Z,99.90
2018-12-14T13:13:50.421Z,99.90
2018-12-14T13:16:20.777Z,99.90
2018-12-14T13:18:50.472Z,99.90
2018-12-14T13:21:19.745Z,99.90
2018-12-14T13:23:50.137Z,99.90
2018-12-14T13:26:19.490Z,99.90
2018-12-14T13:28:49.235Z,99.90
2018-12-14T13:31:18.904Z,99.90
2018-12-14T13:33:48.967Z,99.90
2018-12-14T13:36:18.412Z,99.90
2018-12-14T13:38:49.259Z,99.90
2018-12-14T13:41:19.782Z,99.90
2018-12-14T13:43:50.251Z,99.90
2018-12-14T13:46:19.917Z,99.90
2018-12-14T13:48:49.289Z,99.90
2018-12-14T13:51:19.372Z,99.90
2018-12-14T13:53:48.252Z,99.90
2018-12-14T13:56:17.827Z,99.90
2018-12-14T13:58:47.098Z,99.90
2018-12-14T14:01:16.478Z,99.90
2018-12-14T14:03:45.988Z,99.90
2018-12-14T14:06:15.436Z,99.90
2018-12-14T14:08:44.835Z,99.90
2018-12-14T14:11:14.655Z,99.90
2018-12-14T14:13:44.282Z,99.90
2018-12-14T14:16:13.700Z,99.90
2018-12-14T14:18:43.971Z,99.90
2018-12-14T14:21:13.515Z,99.90
2018-12-14T14:23:43.851Z,99.90
2018-12-14T14:26:13.615Z,99.90
2018-12-14T14:28:43.106Z,99.90
2018-12-14T14:31:12.759Z,99.90
2018-12-14T14:33:42.625Z,99.90
2018-12-14T14:36:12.401Z,99.90
2018-12-14T14:38:41.920Z,99.90
2018-12-14T14:41:11.427Z,99.90
2018-12-14T14:43:41.858Z,99.90
2018-12-14T14:46:12.272Z,99.90
2018-12-14T14:48:42.362Z,99.90
2018-12-14T14:51:12.701Z,99.90
2018-12-14T14:53:42.223Z,99.90
2018-12-14T14:56:20.306Z,99.90
2018-12-14T14:58:51.444Z,99.90
2018-12-14T15:01:21.757Z,99.90
2018-12-14T15:03:51.409Z,99.90
2018-12-14T15:06:20.728Z,99.90
2018-12-14T15:08:49.918Z,99.90
2018-12-14T15:11:19.341Z,99.90
2018-12-14T15:13:49.161Z,99.90
2018-12-14T15:16:18.564Z,99.90
2018-12-14T15:18:47.977Z,99.90
2018-12-14T15:21:17.707Z,99.90
2018-12-14T15:23:47.212Z,99.90
2018-12-14T15:26:17.268Z,99.90
2018-12-14T15:28:46.755Z,99.90
2018-12-14T15:31:16.216Z,99.90
2018-12-14T15:33:45.945Z,99.90
2018-12-14T15:36:15.224Z,99.90
2018-12-14T15:38:44.645Z,99.90
2018-12-14T15:41:13.815Z,99.90
2018-12-14T15:43:43.456Z,97.10
2018-12-14T15:46:12.928Z,99.90
2018-12-14T15:48:42.549Z,99.90
2018-12-14T15:51:12.135Z,99.90
2018-12-14T15:53:41.645Z,96.30
2018-12-14T15:56:11.147Z,95.80
2018-12-14T15:58:40.596Z,94.60
2018-12-14T16:01:10.014Z,95.90
2018-12-14T16:03:39.760Z,89.50
2018-12-14T16:06:08.939Z,77.10
2018-12-14T16:08:38.424Z,90.00
2018-12-14T16:11:07.809Z,94.00
2018-12-14T16:13:37.621Z,92.60
2018-12-14T16:16:07.305Z,90.90
2018-12-14T16:18:36.591Z,90.30
2018-12-14T16:21:06.129Z,81.10
2018-12-14T16:23:35.884Z,90.40
2018-12-14T16:26:05.481Z,90.00
2018-12-14T16:28:34.924Z,91.10
2018-12-14T16:31:04.769Z,91.90
2018-12-14T16:33:34.412Z,83.00
2018-12-14T16:36:04.003Z,84.20
2018-12-14T16:38:34.502Z,93.50
2018-12-14T16:41:04.517Z,93.30
2018-12-14T16:43:33.998Z,93.50
2018-12-14T16:46:03.419Z,90.80
2018-12-14T16:48:32.939Z,91.00
2018-12-14T16:51:03.234Z,91.10
2018-12-14T16:53:32.550Z,94.50
2018-12-14T16:56:01.825Z,94.10
2018-12-14T16:58:31.275Z,92.50
2018-12-14T17:01:00.781Z,92.00
2018-12-14T17:03:30.508Z,82.10
2018-12-14T17:05:59.928Z,88.30
2018-12-14T17:08:30.620Z,86.40
2018-12-14T17:11:01.164Z,86.50
2018-12-14T17:13:30.432Z,73.70
2018-12-14T17:16:00.254Z,80.90
2018-12-14T17:18:29.538Z,92.90
2018-12-14T17:20:58.230Z,95.40
2018-12-14T17:23:27.217Z,94.80
2018-12-14T17:25:56.750Z,89.90
2018-12-14T17:28:26.051Z,88.40
2018-12-14T17:30:55.911Z,91.30
2018-12-14T17:33:26.501Z,80.80
2018-12-14T17:35:55.916Z,87.00
2018-12-14T17:38:25.565Z,82.30
2018-12-14T17:40:55.155Z,77.40
2018-12-14T17:43:24.500Z,75.00
2018-12-14T17:45:54.204Z,82.50
2018-12-14T17:48:23.721Z,88.00
2018-12-14T17:50:53.135Z,89.80
2018-12-14T17:53:23.972Z,91.10
2018-12-14T17:55:54.381Z,89.60
2018-12-14T17:58:24.138Z,88.80
2018-12-14T18:00:58.377Z,91.90
2018-12-14T18:03:24.618Z,91.90
2018-12-14T18:05:54.304Z,93.80
2018-12-14T18:08:23.735Z,95.30
2018-12-14T18:10:53.254Z,98.40
2018-12-14T18:13:22.887Z,98.20
2018-12-14T18:15:52.206Z,99.00
2018-12-14T18:18:21.754Z,99.90
2018-12-14T18:20:51.536Z,99.90
2018-12-14T18:23:22.503Z,99.90
2018-12-14T18:25:51.770Z,99.90
2018-12-14T18:28:21.173Z,99.00
2018-12-14T18:30:51.898Z,99.90
2018-12-14T18:33:21.267Z,99.90
2018-12-14T18:35:50.829Z,99.90
2018-12-14T18:38:20.480Z,99.90
2018-12-14T18:40:50.772Z,99.90
2018-12-14T18:43:20.408Z,99.90
2018-12-14T18:45:53.241Z,99.90
2018-12-14T18:48:21.144Z,99.90
2018-12-14T18:50:50.618Z,99.90
2018-12-14T18:53:20.209Z,99.90
2018-12-14T18:55:49.545Z,99.70
2018-12-14T18:58:19.352Z,99.90
2018-12-14T19:00:48.789Z,99.90
2018-12-14T19:03:18.688Z,86.00
2018-12-14T19:05:48.100Z,91.50
2018-12-14T19:08:18.110Z,92.30
2018-12-14T19:10:47.479Z,92.30
2018-12-14T19:13:17.268Z,90.40
2018-12-14T19:15:46.849Z,83.50
2018-12-14T19:18:16.201Z,88.50
2018-12-14T19:20:45.507Z,85.50
2018-12-14T19:23:19.661Z,85.40
2018-12-14T19:25:45.443Z,84.70
2018-12-14T19:28:14.712Z,80.60
2018-12-14T19:30:44.058Z,86.90
2018-12-14T19:33:13.374Z,88.00
2018-12-14T19:35:43.029Z,85.40
2018-12-14T19:38:12.332Z,83.90
2018-12-14T19:40:41.939Z,84.80
2018-12-14T19:43:11.349Z,84.80
2018-12-14T19:45:41.949Z,72.10
2018-12-14T19:48:11.544Z,72.00
2018-12-14T19:50:41.053Z,80.60
2018-12-14T19:53:10.742Z,82.70
2018-12-14T19:55:40.155Z,80.40
2018-12-14T19:58:09.784Z,84.20
2018-12-14T20:00:39.236Z,89.90
2018-12-14T20:03:08.279Z,84.30
2018-12-14T20:05:38.449Z,90.40
2018-12-14T20:08:07.899Z,90.20
2018-12-14T20:10:37.644Z,86.10
2018-12-14T20:13:08.059Z,89.10
2018-12-14T20:15:37.709Z,88.90
2018-12-14T20:18:07.188Z,89.70
2018-12-14T20:20:36.511Z,90.30
2018-12-14T20:23:05.898Z,84.10
2018-12-14T20:25:35.215Z,86.10
2018-12-14T20:28:04.719Z,90.00
2018-12-14T20:30:34.308Z,87.90
2018-12-14T20:33:03.851Z,86.90
2018-12-14T20:35:33.283Z,86.60
2018-12-14T20:38:02.964Z,82.80
2018-12-14T20:40:32.423Z,84.10
2018-12-14T20:43:01.710Z,90.50
2018-12-14T20:45:31.058Z,89.70
2018-12-14T20:48:00.691Z,83.20
2018-12-14T20:50:29.728Z,87.40
2018-12-14T20:52:59.383Z,78.70
2018-12-14T20:55:28.899Z,86.10
2018-12-14T20:57:58.415Z,84.30
2018-12-14T21:00:29.005Z,74.20
2018-12-14T21:02:58.876Z,74.00
2018-12-14T21:05:28.109Z,71.00
2018-12-14T21:07:57.440Z,72.50
2018-12-14T21:10:26.870Z,74.20
2018-12-14T21:12:57.365Z,75.20
2018-12-14T21:15:26.802Z,75.10
2018-12-14T21:17:56.039Z,75.60
2018-12-14T21:20:25.326Z,79.20
2018-12-14T21:22:54.641Z,84.20
2018-12-14T21:25:24.581Z,85.70
2018-12-14T21:27:54.024Z,84.10
2018-12-14T21:30:23.869Z,79.00
2018-12-14T21:32:53.496Z,83.40
2018-12-14T21:35:22.679Z,79.70
2018-12-14T21:37:52.223Z,80.00
2018-12-14T21:40:22.098Z,81.00
2018-12-14T21:42:51.587Z,81.10
2018-12-14T21:45:22.044Z,76.70
2018-12-14T21:47:52.694Z,76.60
2018-12-14T21:50:22.026Z,75.80
2018-12-14T21:52:52.223Z,64.70
2018-12-14T21:55:21.977Z,65.40
2018-12-14T21:57:51.562Z,60.60
2018-12-14T22:00:21.242Z,68.80
2018-12-14T22:02:50.724Z,67.00
2018-12-14T22:05:19.933Z,61.10
2018-12-14T22:07:49.808Z,56.00
2018-12-14T22:10:19.182Z,53.40
2018-12-14T22:12:48.449Z,53.20
2018-12-14T22:15:18.459Z,50.70
2018-12-14T22:17:47.621Z,55.00
2018-12-14T22:20:18.092Z,51.90
2018-12-14T22:22:47.645Z,51.90
2018-12-14T22:25:17.516Z,56.40
2018-12-14T22:27:47.219Z,53.70
2018-12-14T22:30:16.528Z,53.60
2018-12-14T22:32:45.814Z,56.10
2018-12-14T22:35:15.329Z,57.40
2018-12-14T22:37:44.964Z,56.10
2018-12-14T22:40:14.641Z,57.80
2018-12-14T22:42:44.038Z,53.40
2018-12-14T22:45:14.430Z,53.90
2018-12-14T22:47:43.979Z,53.90
2018-12-14T22:50:13.399Z,57.00
2018-12-14T22:52:42.904Z,58.90
2018-12-14T22:55:12.357Z,59.10
2018-12-14T22:57:42.609Z,63.40
2018-12-14T23:00:12.687Z,63.30
2018-12-14T23:02:42.010Z,59.10
2018-12-14T23:05:11.491Z,56.60
2018-12-14T23:07:40.992Z,63.50
2018-12-14T23:10:10.534Z,65.40
2018-12-14T23:12:40.091Z,59.90
2018-12-14T23:15:09.578Z,62.10
2018-12-14T23:17:38.947Z,68.20
2018-12-14T23:20:08.394Z,66.40
2018-12-14T23:22:37.977Z,63.30
2018-12-14T23:25:07.504Z,58.90
2018-12-14T23:27:37.084Z,60.60
2018-12-14T23:30:06.848Z,62.50
2018-12-14T23:32:36.420Z,64.70
2018-12-14T23:35:06.043Z,59.10
2018-12-14T23:37:35.686Z,59.60
2018-12-14T23:40:06.140Z,62.50
2018-12-14T23:42:35.616Z,62.40
2018-12-14T23:45:05.560Z,68.60
2018-12-14T23:47:35.046Z,69.60
2018-12-14T23:50:05.248Z,71.20
2018-12-14T23:52:34.854Z,71.20
2018-12-14T23:55:04.416Z,70.30
2018-12-14T23:57:34.034Z,70.20
